createdAt,value
2023-01-22T00:00:02.105Z,101261.16
2023-01-22T00:02:32.782Z,101257.88
2023-01-22T00:05:03.245Z,101259.03
2023-01-22T00:07:34.813Z,101256.56
2023-01-22T00:10:04.527Z,101259.69
2023-01-22T00:12:38.445Z,101257.22
2023-01-22T00:15:09.833Z,101261.53
2023-01-22T00:17:40.415Z,101255.94
2023-01-22T00:20:13.949Z,101261.53
2023-01-22T00:22:44.510Z,101258.72
2023-01-22T00:25:15.409Z,101257.91
2023-01-22T00:27:47.821Z,101253.13
2023-01-22T00:30:18.813Z,101250.34
2023-01-22T00:32:49.803Z,101244.72
2023-01-22T00:35:20.517Z,101239.44
2023-01-22T00:37:51.538Z,101241.44
2023-01-22T00:40:22.280Z,101242.59
2023-01-22T00:42:54.149Z,101242.94
2023-01-22T00:45:24.607Z,101238.16
2023-01-22T00:47:55.053Z,101237.66
2023-01-22T00:50:25.790Z,101245.56
2023-01-22T00:52:55.717Z,101245.56
2023-01-22T00:55:26.354Z,101232.75
2023-01-22T00:57:58.322Z,101245.09
2023-01-22T01:00:28.823Z,101240.66
2023-01-22T01:03:15.635Z,101245.41
2023-01-22T01:05:46.306Z,101246.56
2023-01-22T01:08:16.118Z,101239.31
2023-01-22T01:10:46.254Z,101240.97
2023-01-22T01:13:18.248Z,101243.75
2023-01-22T01:15:48.856Z,101244.91
2023-01-22T01:18:19.323Z,101244.44
2023-01-22T01:20:56.706Z,101244.75
2023-01-22T01:23:27.456Z,101247.91
2023-01-22T01:25:57.968Z,101247.41
2023-01-22T01:28:30.922Z,101246.09
2023-01-22T01:31:06.578Z,101248.41
2023-01-22T01:33:36.932Z,101245.09
2023-01-22T01:36:11.084Z,101249.06
2023-01-22T01:38:41.515Z,101237.06
2023-01-22T01:41:14.933Z,101242.50
2023-01-22T01:43:47.137Z,101238.88
2023-01-22T01:46:25.677Z,101231.66
2023-01-22T01:48:58.621Z,101236.75
2023-01-22T01:51:33.999Z,101233.13
2023-01-22T01:54:07.107Z,101223.91
2023-01-22T01:56:44.927Z,101229.50
2023-01-22T01:59:20.514Z,101225.06
2023-01-22T02:01:56.153Z,101229.00
2023-01-22T02:04:29.394Z,101227.38
2023-01-22T02:06:59.411Z,101228.84
2023-01-22T02:09:30.432Z,101232.47
2023-01-22T02:12:00.880Z,101226.72
2023-01-22T02:14:40.652Z,101226.72
2023-01-22T02:17:13.792Z,101227.06
2023-01-22T02:19:53.264Z,101218.16
2023-01-22T02:22:30.375Z,101225.75
2023-01-22T02:25:01.587Z,101232.00
2023-01-22T02:27:32.287Z,101224.75
2023-01-22T02:30:02.482Z,101226.75
2023-01-22T02:32:32.179Z,101225.41
2023-01-22T02:35:02.655Z,101228.50
2023-01-22T02:37:33.871Z,101224.41
2023-01-22T02:40:04.354Z,101226.72
2023-01-22T02:42:34.478Z,101232.16
2023-01-22T02:45:05.336Z,101228.03
2023-01-22T02:47:38.387Z,101223.09
2023-01-22T02:50:09.670Z,101232.97
2023-01-22T02:52:41.505Z,101229.69
2023-01-22T02:55:12.615Z,101227.53
2023-01-22T02:57:43.199Z,101232.63
2023-01-22T03:00:16.640Z,101234.63
2023-01-22T03:02:47.067Z,101241.69
2023-01-22T03:05:16.985Z,101236.75
2023-01-22T03:07:49.286Z,101236.25
2023-01-22T03:10:22.359Z,101232.13
2023-01-22T03:13:09.461Z,101242.00
2023-01-22T03:15:58.968Z,101247.91
2023-01-22T03:18:45.947Z,101251.03
2023-01-22T03:21:30.679Z,101255.50
2023-01-22T03:24:03.257Z,101257.13
2023-01-22T03:26:37.014Z,101257.63
2023-01-22T03:29:07.680Z,101257.13
2023-01-22T03:31:38.067Z,101253.84
2023-01-22T03:34:08.706Z,101249.41
2023-01-22T03:36:38.862Z,101259.25
2023-01-22T03:39:10.751Z,101257.28
2023-01-22T03:41:41.572Z,101248.38
2023-01-22T03:44:12.247Z,101256.78
2023-01-22T03:46:42.237Z,101255.97
2023-01-22T03:49:15.735Z,101255.16
2023-01-22T03:51:47.217Z,101251.03
2023-01-22T03:54:20.284Z,101256.09
2023-01-22T03:56:50.505Z,101256.78
2023-01-22T03:59:20.591Z,101247.91
2023-01-22T04:01:51.295Z,101253.81
2023-01-22T04:04:21.801Z,101247.41
2023-01-22T04:06:52.279Z,101252.16
2023-01-22T04:09:24.401Z,101252.16
2023-01-22T04:11:54.779Z,101247.72
2023-01-22T04:14:24.573Z,101249.69
2023-01-22T04:16:55.070Z,101256.75
2023-01-22T04:19:25.585Z,101258.56
2023-01-22T04:21:56.012Z,101250.84
2023-01-22T04:24:28.460Z,101257.06
2023-01-22T04:26:58.964Z,101259.34
2023-01-22T04:29:29.045Z,101259.69
2023-01-22T04:31:59.322Z,101258.38
2023-01-22T04:34:29.440Z,101263.97
2023-01-22T04:36:59.180Z,101262.28
2023-01-22T04:39:31.905Z,101267.88
2023-01-22T04:42:02.276Z,101278.19
2023-01-22T04:44:33.233Z,101274.94
2023-01-22T04:47:03.436Z,101279.16
2023-01-22T04:49:33.374Z,101285.09
2023-01-22T04:52:03.648Z,101279.84
2023-01-22T04:54:36.372Z,101283.78
2023-01-22T04:57:06.909Z,101292.47
2023-01-22T04:59:37.349Z,101296.72
2023-01-22T05:02:07.197Z,101299.84
2023-01-22T05:04:37.283Z,101295.22
2023-01-22T05:07:07.729Z,101300.81
2023-01-22T05:09:40.179Z,101304.75
2023-01-22T05:12:10.802Z,101304.25
2023-01-22T05:14:40.878Z,101308.19
2023-01-22T05:17:10.825Z,101318.22
2023-01-22T05:19:41.199Z,101321.16
2023-01-22T05:22:11.712Z,101326.31
2023-01-22T05:24:44.218Z,101325.19
2023-01-22T05:27:14.611Z,101337.78
2023-01-22T05:29:45.164Z,101339.09
2023-01-22T05:32:16.135Z,101344.59
2023-01-22T05:34:46.856Z,101349.03
2023-01-22T05:37:16.896Z,101354.97
2023-01-22T05:39:48.737Z,101350.88
2023-01-22T05:42:19.412Z,101348.25
2023-01-22T05:44:49.875Z,101349.91
2023-01-22T05:47:20.378Z,101353.00
2023-01-22T05:49:50.865Z,101365.03
2023-01-22T05:52:21.375Z,101366.69
2023-01-22T05:54:53.641Z,101363.88
2023-01-22T05:57:23.793Z,101371.94
2023-01-22T05:59:54.215Z,101372.94
2023-01-22T06:02:25.527Z,101377.84
2023-01-22T06:04:55.970Z,101379.38
2023-01-22T06:07:26.533Z,101381.38
2023-01-22T06:09:58.866Z,101379.56
2023-01-22T06:12:29.452Z,101388.31
2023-01-22T06:14:59.572Z,101392.91
2023-01-22T06:17:29.863Z,101376.97
2023-01-22T06:20:00.166Z,101383.00
2023-01-22T06:22:30.080Z,101387.69
2023-01-22T06:25:01.951Z,101395.03
2023-01-22T06:27:31.631Z,101396.28
2023-01-22T06:30:02.137Z,101395.16
2023-01-22T06:32:32.252Z,101397.16
2023-01-22T06:35:03.589Z,101412.28
2023-01-22T06:37:33.835Z,101406.16
2023-01-22T06:40:05.676Z,101408.19
2023-01-22T06:42:38.180Z,101411.44
2023-01-22T06:45:10.259Z,101408.19
2023-01-22T06:47:40.817Z,101405.13
2023-01-22T06:50:12.981Z,101402.00
2023-01-22T06:52:43.068Z,101408.47
2023-01-22T06:55:15.660Z,101408.13
2023-01-22T06:57:45.755Z,101410.66
2023-01-22T07:00:25.849Z,101415.59
2023-01-22T07:02:57.461Z,101421.72
2023-01-22T07:05:27.780Z,101425.00
2023-01-22T07:07:58.396Z,101427.31
2023-01-22T07:10:30.641Z,101426.75
2023-01-22T07:13:02.050Z,101430.63
2023-01-22T07:15:32.671Z,101432.97
2023-01-22T07:18:03.199Z,101436.59
2023-01-22T07:20:33.561Z,101436.56
2023-01-22T07:23:03.497Z,101432.19
2023-01-22T07:25:35.293Z,101428.59
2023-01-22T07:28:07.936Z,101438.69
2023-01-22T07:30:39.425Z,101435.34
2023-01-22T07:33:10.074Z,101436.47
2023-01-22T07:35:40.853Z,101438.78
2023-01-22T07:38:11.604Z,101431.78
2023-01-22T07:40:44.106Z,101435.25
2023-01-22T07:43:16.838Z,101426.16
2023-01-22T07:45:47.274Z,101429.66
2023-01-22T07:48:17.699Z,101421.72
2023-01-22T07:50:48.353Z,101426.28
2023-01-22T07:53:18.977Z,101422.84
2023-01-22T07:55:51.492Z,101410.09
2023-01-22T07:58:22.062Z,101407.06
2023-01-22T08:00:53.392Z,101409.78
2023-01-22T08:03:26.434Z,101403.13
2023-01-22T08:05:57.663Z,101394.94
2023-01-22T08:08:28.114Z,101397.72
2023-01-22T08:11:05.685Z,101377.78
2023-01-22T08:13:40.080Z,101380.41
2023-01-22T08:16:11.148Z,101371.28
2023-01-22T08:18:42.697Z,101375.06
2023-01-22T08:21:13.079Z,101369.97
2023-01-22T08:23:48.197Z,101360.78
2023-01-22T08:26:21.719Z,101359.31
2023-01-22T08:29:04.352Z,101362.34
2023-01-22T08:31:36.230Z,101357.25
2023-01-22T08:34:06.805Z,101356.63
2023-01-22T08:36:36.869Z,101349.63
2023-01-22T08:39:07.552Z,101346.19
2023-01-22T08:41:52.728Z,101352.06
2023-01-22T08:44:22.778Z,101351.03
2023-01-22T08:46:52.991Z,101347.56
2023-01-22T08:49:23.984Z,101352.94
2023-01-22T08:51:54.111Z,101344.94
2023-01-22T08:54:23.814Z,101342.53
2023-01-22T08:56:56.640Z,101339.78
2023-01-22T08:59:28.836Z,101328.91
2023-01-22T09:02:01.705Z,101327.31
2023-01-22T09:04:32.840Z,101324.91
2023-01-22T09:07:04.403Z,101316.88
2023-01-22T09:09:34.839Z,101319.31
2023-01-22T09:12:08.395Z,101308.41
2023-01-22T09:14:38.796Z,101303.13
2023-01-22T09:17:09.735Z,101301.88
2023-01-22T09:19:40.730Z,101293.75
2023-01-22T09:22:11.302Z,101283.59
2023-01-22T09:24:41.981Z,101280.69
2023-01-22T09:27:14.659Z,101281.38
2023-01-22T09:29:45.472Z,101271.59
2023-01-22T09:32:16.003Z,101271.91
2023-01-22T09:34:46.573Z,101259.34
2023-01-22T09:37:17.610Z,101256.44
2023-01-22T09:39:49.549Z,101253.97
2023-01-22T09:42:31.182Z,101256.78
2023-01-22T09:45:07.488Z,101248.22
2023-01-22T09:47:45.581Z,101253.84
2023-01-22T09:50:22.590Z,101243.66
2023-01-22T09:52:56.692Z,101248.88
2023-01-22T09:55:32.089Z,101241.53
2023-01-22T09:58:12.205Z,101235.81
2023-01-22T10:00:46.113Z,101235.31
2023-01-22T10:03:27.446Z,101225.06
2023-01-22T10:06:03.815Z,101225.31
2023-01-22T10:08:40.615Z,101223.19
2023-01-22T10:11:12.748Z,101218.66
2023-01-22T10:13:45.334Z,101206.03
2023-01-22T10:16:15.692Z,101209.56
2023-01-22T10:18:56.908Z,101203.78
2023-01-22T10:21:30.227Z,101202.84
2023-01-22T10:24:02.245Z,101196.22
2023-01-22T10:26:40.952Z,101190.03
2023-01-22T10:29:23.600Z,101190.38
2023-01-22T10:31:58.534Z,101190.31
2023-01-22T10:34:35.232Z,101180.50
2023-01-22T10:37:15.516Z,101178.78
2023-01-22T10:39:48.799Z,101175.09
2023-01-22T10:42:21.657Z,101176.22
2023-01-22T10:44:58.003Z,101170.06
2023-01-22T10:47:29.363Z,101177.59
2023-01-22T10:50:16.701Z,101168.13
2023-01-22T10:52:54.189Z,101167.97
2023-01-22T10:55:28.835Z,101167.47
2023-01-22T10:58:04.280Z,101168.97
2023-01-22T11:00:51.553Z,101163.97
2023-01-22T11:03:26.142Z,101167.84
2023-01-22T11:06:02.569Z,101162.50
2023-01-22T11:08:46.066Z,101153.88
2023-01-22T11:11:22.961Z,101165.84
2023-01-22T11:14:00.729Z,101165.31
2023-01-22T11:16:39.824Z,101165.50
2023-01-22T11:19:23.791Z,101164.88
2023-01-22T11:22:00.989Z,101171.53
2023-01-22T11:24:41.976Z,101166.53
2023-01-22T11:27:46.049Z,101168.03
2023-01-22T11:31:00.288Z,101160.22
2023-01-22T11:33:56.044Z,101166.59
2023-01-22T11:36:38.546Z,101176.50
2023-01-22T11:39:21.986Z,101179.72
2023-01-22T11:42:06.192Z,101177.22
2023-01-22T11:44:56.213Z,101176.44
2023-01-22T11:48:08.119Z,101184.81
2023-01-22T11:50:48.799Z,101177.53
2023-01-22T11:53:55.499Z,101177.06
2023-01-22T11:56:49.791Z,101181.00
2023-01-22T11:59:39.148Z,101182.09
2023-01-22T12:02:49.324Z,101173.84
2023-01-22T12:05:38.486Z,101174.16
2023-01-22T12:08:34.973Z,101182.50
2023-01-22T12:11:38.263Z,101176.88
2023-01-22T12:14:31.572Z,101186.97
2023-01-22T12:17:16.198Z,101186.50
2023-01-22T12:20:37.681Z,101186.84
2023-01-22T12:23:16.548Z,101186.41
2023-01-22T12:25:58.305Z,101188.41
2023-01-22T12:28:36.255Z,101193.25
2023-01-22T12:31:16.699Z,101188.78
2023-01-22T12:33:47.308Z,101192.31
2023-01-22T12:36:24.453Z,101197.84
2023-01-22T12:39:02.331Z,101190.59
2023-01-22T12:41:49.927Z,101196.59
2023-01-22T12:44:43.380Z,101198.16
2023-01-22T12:47:23.180Z,101193.22
2023-01-22T12:49:56.078Z,101203.66
2023-01-22T12:52:36.690Z,101202.03
2023-01-22T12:55:30.349Z,101197.59
2023-01-22T12:58:02.719Z,101201.13
2023-01-22T13:00:36.932Z,101201.94
2023-01-22T13:03:33.162Z,101202.28
2023-01-22T13:06:05.151Z,101201.38
2023-01-22T13:08:43.323Z,101203.38
2023-01-22T13:11:16.159Z,101206.91
2023-01-22T13:13:56.739Z,101206.81
2023-01-22T13:16:36.942Z,101209.53
2023-01-22T13:19:23.995Z,101211.09
2023-01-22T13:22:03.199Z,101198.53
2023-01-22T13:24:34.570Z,101205.34
2023-01-22T13:27:07.156Z,101207.72
2023-01-22T13:29:42.677Z,101206.88
2023-01-22T13:32:21.099Z,101206.88
2023-01-22T13:34:52.101Z,101201.94
2023-01-22T13:37:27.363Z,101204.75
2023-01-22T13:39:57.984Z,101224.47
2023-01-22T13:42:29.998Z,101216.38
2023-01-22T13:45:03.421Z,101217.53
2023-01-22T13:47:37.550Z,101222.75
2023-01-22T13:50:24.523Z,101225.56
2023-01-22T13:52:55.890Z,101223.06
2023-01-22T13:55:45.887Z,101224.25
2023-01-22T13:58:48.086Z,101234.59
2023-01-22T14:01:34.010Z,101229.22
2023-01-22T14:04:07.657Z,101231.13
2023-01-22T14:06:50.232Z,101237.09
2023-01-22T14:09:31.272Z,101237.00
2023-01-22T14:12:02.163Z,101242.53
2023-01-22T14:14:47.337Z,101239.25
2023-01-22T14:17:29.169Z,101237.16
2023-01-22T14:20:01.166Z,101247.09
2023-01-22T14:22:34.441Z,101249.81
2023-01-22T14:25:05.659Z,101245.38
2023-01-22T14:27:46.761Z,101245.72
2023-01-22T14:30:22.624Z,101245.25
2023-01-22T14:32:54.091Z,101245.97
2023-01-22T14:35:27.997Z,101247.50
2023-01-22T14:37:59.292Z,101250.22
2023-01-22T14:40:33.377Z,101252.91
2023-01-22T14:43:04.688Z,101250.78
2023-01-22T14:45:35.302Z,101250.31
2023-01-22T14:48:08.569Z,101253.50
2023-01-22T14:50:41.341Z,101261.44
2023-01-22T14:53:12.645Z,101259.00
2023-01-22T14:55:44.138Z,101256.53
2023-01-22T14:58:16.687Z,101259.34
2023-01-22T15:00:47.357Z,101258.88
2023-01-22T15:03:19.821Z,101273.28
2023-01-22T15:05:54.199Z,101273.28
2023-01-22T15:08:24.458Z,101275.97
2023-01-22T15:10:54.941Z,101274.34
2023-01-22T15:13:25.155Z,101279.97
2023-01-22T15:15:56.424Z,101285.59
2023-01-22T15:18:28.856Z,101281.50
2023-01-22T15:20:59.835Z,101284.31
2023-01-22T15:23:30.546Z,101283.03
2023-01-22T15:26:02.482Z,101280.56
2023-01-22T15:28:33.290Z,101288.53
2023-01-22T15:31:08.180Z,101297.31
2023-01-22T15:33:40.214Z,101281.97
2023-01-22T15:36:12.202Z,101296.03
2023-01-22T15:38:43.417Z,101289.94
2023-01-22T15:41:24.568Z,101293.56
2023-01-22T15:44:01.168Z,101300.38
2023-01-22T15:46:33.740Z,101301.91
2023-01-22T15:49:09.241Z,101303.88
2023-01-22T15:51:40.898Z,101297.78
2023-01-22T15:54:17.101Z,101302.59
2023-01-22T15:56:49.508Z,101300.94
2023-01-22T15:59:20.951Z,101301.63
2023-01-22T16:01:52.855Z,101302.81
2023-01-22T16:04:25.690Z,101308.78
2023-01-22T16:06:56.779Z,101310.78
2023-01-22T16:09:27.879Z,101305.50
2023-01-22T16:12:10.527Z,101308.66
2023-01-22T16:14:41.521Z,101301.75
2023-01-22T16:17:11.951Z,101306.91
2023-01-22T16:19:44.986Z,101308.88
2023-01-22T16:22:15.359Z,101310.09
2023-01-22T16:24:50.727Z,101313.59
2023-01-22T16:27:21.661Z,101309.13
2023-01-22T16:29:52.028Z,101308.66
2023-01-22T16:32:31.145Z,101322.69
2023-01-22T16:35:04.370Z,101309.81
2023-01-22T16:37:34.317Z,101311.81
2023-01-22T16:40:07.260Z,101303.72
2023-01-22T16:42:38.064Z,101304.91
2023-01-22T16:45:09.535Z,101306.88
2023-01-22T16:47:39.663Z,101320.13
2023-01-22T16:50:14.445Z,101319.28
2023-01-22T16:52:45.871Z,101317.66
2023-01-22T16:55:15.926Z,101309.56
2023-01-22T16:57:46.330Z,101310.75
2023-01-22T17:00:18.132Z,101313.06
2023-01-22T17:02:48.378Z,101313.06
2023-01-22T17:05:20.891Z,101308.59
2023-01-22T17:07:51.489Z,101311.75
2023-01-22T17:10:22.389Z,101307.31
2023-01-22T17:12:52.310Z,101319.72
2023-01-22T17:15:22.293Z,101324.84
2023-01-22T17:17:53.064Z,101325.69
2023-01-22T17:20:24.895Z,101321.59
2023-01-22T17:22:56.568Z,101328.38
2023-01-22T17:25:27.461Z,101326.72
2023-01-22T17:27:58.131Z,101331.50
2023-01-22T17:30:28.264Z,101323.78
2023-01-22T17:32:58.679Z,101328.56
2023-01-22T17:35:31.170Z,101330.91
2023-01-22T17:38:01.694Z,101319.22
2023-01-22T17:40:32.385Z,101321.53
2023-01-22T17:43:03.387Z,101314.63
2023-01-22T17:45:34.231Z,101316.59
2023-01-22T17:48:04.380Z,101323.38
2023-01-22T17:50:38.279Z,101327.38
2023-01-22T17:53:10.858Z,101334.50
2023-01-22T17:55:41.430Z,101342.13
2023-01-22T17:58:12.138Z,101341.28
2023-01-22T18:00:42.696Z,101346.91
2023-01-22T18:03:14.743Z,101343.59
2023-01-22T18:05:47.539Z,101340.00
2023-01-22T18:08:21.456Z,101335.53
2023-01-22T18:10:57.683Z,101333.09
2023-01-22T18:13:28.671Z,101331.81
2023-01-22T18:16:00.902Z,101330.59
2023-01-22T18:18:31.953Z,101322.06
2023-01-22T18:21:04.631Z,101328.84
2023-01-22T18:23:37.585Z,101332.34
2023-01-22T18:26:11.367Z,101328.69
2023-01-22T18:28:41.858Z,101329.06
2023-01-22T18:31:17.043Z,101323.81
2023-01-22T18:33:49.627Z,101324.13
2023-01-22T18:36:26.927Z,101325.28
2023-01-22T18:39:01.419Z,101324.00
2023-01-22T18:41:33.157Z,101322.00
2023-01-22T18:44:05.640Z,101326.81
2023-01-22T18:46:39.623Z,101317.91
2023-01-22T18:49:17.019Z,101313.44
2023-01-22T18:51:50.572Z,101315.81
2023-01-22T18:54:21.989Z,101316.97
2023-01-22T18:56:52.763Z,101309.69
2023-01-22T18:59:24.015Z,101320.09
2023-01-22T19:01:55.968Z,101314.84
2023-01-22T19:04:28.583Z,101316.84
2023-01-22T19:07:01.475Z,101305.13
2023-01-22T19:09:32.325Z,101318.31
2023-01-22T19:12:02.635Z,101318.69
2023-01-22T19:14:41.969Z,101318.19
2023-01-22T19:17:19.027Z,101317.22
2023-01-22T19:19:52.668Z,101313.81
2023-01-22T19:22:26.089Z,101316.78
2023-01-22T19:24:57.846Z,101320.97
2023-01-22T19:27:29.434Z,101321.66
2023-01-22T19:30:01.169Z,101319.22
2023-01-22T19:32:35.776Z,101321.16
2023-01-22T19:35:08.162Z,101317.06
2023-01-22T19:37:43.847Z,101319.38
2023-01-22T19:40:16.247Z,101317.75
2023-01-22T19:42:48.893Z,101312.84
2023-01-22T19:45:20.815Z,101311.19
2023-01-22T19:47:52.392Z,101305.91
2023-01-22T19:50:25.885Z,101304.25
2023-01-22T19:53:00.874Z,101316.66
2023-01-22T19:55:32.768Z,101315.84
2023-01-22T19:58:03.920Z,101309.72
2023-01-22T20:00:35.354Z,101310.88
2023-01-22T20:03:10.176Z,101310.09
2023-01-22T20:06:21.358Z,101305.63
2023-01-22T20:08:54.464Z,101298.38
2023-01-22T20:11:25.667Z,101290.81
2023-01-22T20:13:57.113Z,101285.19
2023-01-22T20:16:32.066Z,101296.41
2023-01-22T20:19:03.179Z,101294.75
2023-01-22T20:21:48.696Z,101289.16
2023-01-22T20:24:22.835Z,101288.31
2023-01-22T20:26:59.153Z,101291.13
2023-01-22T20:29:31.266Z,101293.13
2023-01-22T20:32:05.957Z,101287.84
2023-01-22T20:34:38.459Z,101289.47
2023-01-22T20:37:11.842Z,101290.63
2023-01-22T20:39:47.304Z,101285.38
2023-01-22T20:42:27.130Z,101284.91
2023-01-22T20:45:03.440Z,101290.84
2023-01-22T20:47:42.856Z,101281.94
2023-01-22T20:50:17.334Z,101280.31
2023-01-22T20:52:50.775Z,101274.22
2023-01-22T20:55:26.504Z,101279.81
2023-01-22T20:57:58.200Z,101271.75
2023-01-22T21:00:29.672Z,101283.81
2023-01-22T21:03:01.217Z,101281.31
2023-01-22T21:05:32.245Z,101276.06
2023-01-22T21:08:03.042Z,101277.22
2023-01-22T21:10:35.412Z,101279.22
2023-01-22T21:13:05.481Z,101271.13
2023-01-22T21:15:37.256Z,101275.09
2023-01-22T21:18:08.265Z,101269.50
2023-01-22T21:20:43.824Z,101275.44
2023-01-22T21:23:15.184Z,101282.22
2023-01-22T21:25:49.445Z,101279.75
2023-01-22T21:28:20.774Z,101271.50
2023-01-22T21:30:51.453Z,101276.16
2023-01-22T21:33:22.410Z,101277.63
2023-01-22T21:35:53.298Z,101263.84
2023-01-22T21:38:23.983Z,101257.25
2023-01-22T21:41:05.094Z,101261.91
2023-01-22T21:43:52.054Z,101260.56
2023-01-22T21:46:26.221Z,101264.88
2023-01-22T21:48:59.859Z,101267.69
2023-01-22T21:51:32.209Z,101263.25
2023-01-22T21:54:02.937Z,101261.59
2023-01-22T21:56:34.896Z,101265.22
2023-01-22T21:59:05.644Z,101258.34
2023-01-22T22:01:36.364Z,101256.69
2023-01-22T22:04:08.823Z,101264.25
2023-01-22T22:06:39.581Z,101249.75
2023-01-22T22:09:15.173Z,101252.56
2023-01-22T22:11:48.364Z,101258.16
2023-01-22T22:14:22.999Z,101256.06
2023-01-22T22:16:53.757Z,101255.56
2023-01-22T22:19:25.602Z,101260.31
2023-01-22T22:21:55.848Z,101259.03
2023-01-22T22:24:26.947Z,101253.78
2023-01-22T22:27:03.375Z,101257.72
2023-01-22T22:29:33.685Z,101253.28
2023-01-22T22:32:03.645Z,101250.84
2023-01-22T22:34:34.438Z,101251.63
2023-01-22T22:37:05.209Z,101262.03
2023-01-22T22:39:35.920Z,101260.41
2023-01-22T22:42:09.060Z,101262.69
2023-01-22T22:44:40.287Z,101268.66
2023-01-22T22:47:11.374Z,101267.00
2023-01-22T22:49:42.324Z,101263.72
2023-01-22T22:52:13.645Z,101264.88
2023-01-22T22:54:43.903Z,101262.41
2023-01-22T22:57:17.106Z,101267.53
2023-01-22T22:59:47.401Z,101269.50
2023-01-22T23:02:18.081Z,101278.72
2023-01-22T23:04:48.778Z,101282.69
2023-01-22T23:07:19.463Z,101281.03
2023-01-22T23:09:49.936Z,101276.59
2023-01-22T23:12:22.494Z,101277.75
2023-01-22T23:14:53.437Z,101285.69
2023-01-22T23:17:23.560Z,101288.47
2023-01-22T23:19:53.667Z,101290.44
2023-01-22T23:22:23.724Z,101299.69
2023-01-22T23:24:53.859Z,101298.03
2023-01-22T23:27:25.650Z,101294.75
2023-01-22T23:29:56.143Z,101300.69
2023-01-22T23:32:27.791Z,101292.94
2023-01-22T23:34:58.225Z,101298.06
2023-01-22T23:37:28.741Z,101301.97
2023-01-22T23:39:59.500Z,101297.88
2023-01-22T23:42:33.248Z,101302.97
2023-01-22T23:45:03.883Z,101302.81
2023-01-22T23:47:33.872Z,101302.81
2023-01-22T23:50:04.550Z,101300.38
2023-01-22T23:52:34.436Z,101301.19
2023-01-22T23:55:04.659Z,101312.38
2023-01-22T23:57:37.301Z,101304.31
